Time;durP1;ratioP1;P1;durP2;ratioP2;P2;SDS_P1;SDS_P2;PMS_P1;PMS_P2;Temp;Humidity;BMP_temperature;BMP_pressure;BME280_temperature;BME280_humidity;BME280_pressure;Samples;Min_cycle;Max_cycle;Signal;HPM_P1;HPM_P2
2022/04/24 00:00:08;;;;;;;14.82;11.45;;;10.00;99.90;;;;;;4980298;28;20099;-57
2022/04/24 00:02:34;;;;;;;11.90;10.30;;;9.90;99.90;;;;;;4980587;28;20140;-57
2022/04/24 00:05:00;;;;;;;16.60;11.25;;;9.90;99.90;;;;;;4981542;28;20060;-55
2022/04/24 00:07:26;;;;;;;13.70;10.35;;;9.90;99.90;;;;;;4995267;28;20038;-56
2022/04/24 00:09:51;;;;;;;13.73;10.52;;;9.80;99.90;;;;;;4988683;28;20083;-57
2022/04/24 00:12:18;;;;;;;14.85;10.38;;;9.80;99.90;;;;;;4983194;28;20047;-56
2022/04/24 00:14:44;;;;;;;11.80;10.45;;;9.80;99.90;;;;;;5000580;28;20049;-58
2022/04/24 00:17:11;;;;;;;12.18;10.40;;;9.80;99.90;;;;;;4989375;28;20284;-57
2022/04/24 00:19:36;;;;;;;13.32;11.10;;;9.70;99.90;;;;;;4993450;28;20599;-56
2022/04/24 00:22:02;;;;;;;13.75;10.10;;;9.70;99.90;;;;;;4986332;28;20044;-56
2022/04/24 00:24:28;;;;;;;12.20;10.65;;;9.70;99.90;;;;;;4969868;28;20136;-54
2022/04/24 00:26:54;;;;;;;11.90;10.15;;;9.60;99.90;;;;;;4969975;28;20050;-56
2022/04/24 00:29:21;;;;;;;12.80;10.40;;;9.60;99.90;;;;;;4984900;28;20105;-57
2022/04/24 00:31:46;;;;;;;11.98;9.40;;;9.60;99.90;;;;;;4985659;28;20413;-57
2022/04/24 00:34:12;;;;;;;13.43;10.25;;;9.60;99.90;;;;;;4991656;28;20041;-59
2022/04/24 00:36:38;;;;;;;11.07;9.07;;;9.50;99.90;;;;;;5000155;28;20041;-57
2022/04/24 00:39:05;;;;;;;10.88;9.15;;;9.50;99.90;;;;;;4992131;28;20444;-58
2022/04/24 00:41:31;;;;;;;12.27;9.57;;;9.50;99.90;;;;;;4991726;28;20045;-57
2022/04/24 00:43:57;;;;;;;13.38;9.98;;;9.50;99.90;;;;;;4979515;28;20113;-56
2022/04/24 00:46:50;;;;;;;10.88;8.77;;;9.40;99.90;;;;;;4971003;28;20037;-57
2022/04/24 00:49:16;;;;;;;10.57;8.38;;;9.50;99.90;;;;;;4979136;28;20487;-58
2022/04/24 00:51:44;;;;;;;13.93;9.02;;;9.40;99.90;;;;;;4993230;28;20042;-54
2022/04/24 00:54:11;;;;;;;11.27;9.23;;;9.40;99.90;;;;;;4991768;28;20356;-54
2022/04/24 00:56:38;;;;;;;15.23;10.30;;;9.30;99.90;;;;;;4985275;28;20041;-59
2022/04/24 00:59:06;;;;;;;10.00;8.80;;;9.30;99.90;;;;;;4987680;28;20046;-57
2022/04/24 01:01:33;;;;;;;10.13;8.75;;;9.30;99.90;;;;;;4958666;28;20117;-55
2022/04/24 01:04:01;;;;;;;10.25;8.35;;;9.30;99.90;;;;;;4984858;28;20053;-57
2022/04/24 01:06:29;;;;;;;9.77;8.23;;;9.20;99.90;;;;;;4988245;28;20452;-57
2022/04/24 01:08:55;;;;;;;12.57;9.57;;;9.20;99.90;;;;;;4969259;28;20164;-58
2022/04/24 01:11:21;;;;;;;12.38;9.20;;;9.20;99.90;;;;;;4988975;28;20425;-57
2022/04/24 01:13:47;;;;;;;13.00;8.38;;;9.20;99.90;;;;;;4947695;28;20829;-58
2022/04/24 01:16:12;;;;;;;11.63;8.00;;;9.10;99.90;;;;;;4989774;28;20057;-57
2022/04/24 01:18:40;;;;;;;13.88;8.90;;;9.10;99.90;;;;;;4985246;28;20065;-58
2022/04/24 01:21:09;;;;;;;11.00;8.93;;;9.10;99.90;;;;;;4992319;28;20065;-58
2022/04/24 01:23:38;;;;;;;12.40;9.07;;;9.10;99.90;;;;;;4982934;28;20489;-57
2022/04/24 01:26:04;;;;;;;10.90;9.10;;;9.00;99.90;;;;;;4992186;28;20049;-57
2022/04/24 01:28:30;;;;;;;9.77;8.40;;;9.10;99.90;;;;;;4976702;28;20125;-58
2022/04/24 01:30:56;;;;;;;9.43;8.43;;;9.10;99.90;;;;;;4978619;28;20084;-59
2022/04/24 01:33:22;;;;;;;10.40;8.63;;;9.10;99.90;;;;;;4951981;28;20044;-58
2022/04/24 01:35:47;;;;;;;10.73;8.65;;;9.10;99.90;;;;;;4980798;28;20030;-58
2022/04/24 01:38:13;;;;;;;11.55;9.45;;;9.00;99.90;;;;;;4992728;28;20065;-58
2022/04/24 01:40:39;;;;;;;12.00;8.65;;;9.00;99.90;;;;;;4953055;28;20048;-59
2022/04/24 01:43:05;;;;;;;15.55;10.30;;;8.90;99.90;;;;;;4987783;28;20038;-57
2022/04/24 01:45:31;;;;;;;9.55;8.10;;;8.90;99.90;;;;;;4983008;28;20048;-55
2022/04/24 01:47:57;;;;;;;15.15;8.70;;;8.90;99.90;;;;;;4977729;28;20067;-54
2022/04/24 01:50:23;;;;;;;11.98;8.63;;;8.90;99.90;;;;;;4975208;28;20405;-58
2022/04/24 01:52:48;;;;;;;13.13;9.98;;;8.90;99.90;;;;;;4988313;28;20104;-55
2022/04/24 01:55:14;;;;;;;10.93;8.15;;;8.80;99.90;;;;;;4976146;28;20108;-54
2022/04/24 01:57:40;;;;;;;12.55;9.52;;;8.80;99.90;;;;;;4977956;28;20077;-58
2022/04/24 02:00:06;;;;;;;12.68;10.13;;;8.80;99.90;;;;;;4975041;28;20057;-57
2022/04/24 02:02:32;;;;;;;12.75;9.15;;;8.80;99.90;;;;;;4976036;28;20046;-54
2022/04/24 02:04:58;;;;;;;9.82;8.13;;;8.80;99.90;;;;;;4949735;28;20076;-56
2022/04/24 02:07:23;;;;;;;10.73;8.45;;;8.80;99.90;;;;;;4971067;28;20585;-58
2022/04/24 02:09:49;;;;;;;10.90;8.68;;;8.80;99.90;;;;;;4960059;28;20049;-57
2022/04/24 02:12:15;;;;;;;10.43;8.60;;;8.70;99.90;;;;;;4953206;28;23649;-57
2022/04/24 02:14:41;;;;;;;11.50;8.90;;;8.70;99.90;;;;;;4979295;28;20052;-58
2022/04/24 02:17:06;;;;;;;11.40;8.23;;;8.70;99.90;;;;;;4983701;28;20068;-56
2022/04/24 02:19:32;;;;;;;11.73;9.77;;;8.60;99.90;;;;;;4977245;28;20042;-58
2022/04/24 02:21:58;;;;;;;10.07;8.73;;;8.60;99.90;;;;;;4985826;28;20061;-58
2022/04/24 02:24:23;;;;;;;12.38;9.20;;;8.60;99.90;;;;;;4974112;28;20057;-57
2022/04/24 02:26:49;;;;;;;10.90;8.68;;;8.60;99.90;;;;;;4981524;28;20042;-58
2022/04/24 02:29:15;;;;;;;11.32;9.35;;;8.60;99.90;;;;;;4973447;28;20073;-56
2022/04/24 02:31:40;;;;;;;11.77;8.15;;;8.60;99.90;;;;;;4984817;28;20440;-57
2022/04/24 02:34:07;;;;;;;10.77;8.40;;;8.60;99.90;;;;;;4978288;28;20053;-58
2022/04/24 02:36:32;;;;;;;12.90;9.63;;;8.60;99.90;;;;;;4974221;28;20085;-58
2022/04/24 02:38:58;;;;;;;10.40;9.13;;;8.60;99.90;;;;;;4977956;28;20065;-57
2022/04/24 02:41:27;;;;;;;10.30;8.88;;;8.50;99.90;;;;;;4967435;28;20038;-56
2022/04/24 02:43:52;;;;;;;13.02;8.32;;;8.50;99.90;;;;;;4974567;28;20081;-57
2022/04/24 02:46:19;;;;;;;12.73;9.20;;;8.50;99.90;;;;;;4983628;28;20038;-57
2022/04/24 02:48:44;;;;;;;10.45;8.32;;;8.50;99.90;;;;;;4980391;28;20069;-56
2022/04/24 02:51:10;;;;;;;11.13;7.88;;;8.50;99.90;;;;;;4962991;28;20042;-57
2022/04/24 02:53:36;;;;;;;10.80;9.15;;;8.50;99.90;;;;;;4977163;28;20396;-57
2022/04/24 02:56:01;;;;;;;10.48;8.75;;;8.50;99.90;;;;;;4969255;28;20039;-57
2022/04/24 02:58:27;;;;;;;14.00;9.48;;;8.50;99.90;;;;;;4986588;28;20112;-54
2022/04/24 03:00:55;;;;;;;12.50;8.75;;;8.40;99.90;;;;;;4985363;28;20046;-57
2022/04/24 03:03:21;;;;;;;10.93;8.63;;;8.40;99.90;;;;;;4994561;28;20056;-58
2022/04/24 03:05:48;;;;;;;13.30;8.93;;;8.30;99.90;;;;;;4968263;28;20412;-58
2022/04/24 03:08:19;;;;;;;12.73;9.25;;;8.40;99.90;;;;;;4978320;28;20038;-57
2022/04/24 03:10:45;;;;;;;13.05;9.80;;;8.40;99.90;;;;;;4977211;28;20378;-58
2022/04/24 03:13:11;;;;;;;10.70;8.38;;;8.40;99.90;;;;;;4983785;28;20488;-58
2022/04/24 03:15:38;;;;;;;11.40;8.82;;;8.40;99.90;;;;;;4980416;28;20046;-57
2022/04/24 03:18:05;;;;;;;11.15;8.93;;;8.40;99.90;;;;;;4970851;28;20128;-56
2022/04/24 03:20:31;;;;;;;11.07;9.52;;;8.30;99.90;;;;;;4977979;28;20080;-54
2022/04/24 03:22:57;;;;;;;11.63;9.10;;;8.30;99.90;;;;;;4977144;28;22097;-55
2022/04/24 03:25:23;;;;;;;12.63;9.40;;;8.30;99.90;;;;;;4987871;28;20149;-56
2022/04/24 03:27:48;;;;;;;13.02;10.02;;;8.30;99.90;;;;;;4979763;28;20048;-57
2022/04/24 03:30:14;;;;;;;14.13;9.55;;;8.20;99.90;;;;;;4986849;28;20932;-58
2022/04/24 03:32:40;;;;;;;11.80;8.93;;;8.20;99.90;;;;;;4989081;28;20042;-59
2022/04/24 03:35:09;;;;;;;10.43;9.07;;;8.20;99.90;;;;;;4985481;28;20038;-58
2022/04/24 03:37:38;;;;;;;12.52;9.45;;;8.20;99.90;;;;;;4989039;28;20069;-56
2022/04/24 03:40:05;;;;;;;11.13;8.90;;;8.20;99.90;;;;;;4982746;28;20053;-57
2022/04/24 03:42:32;;;;;;;12.88;8.85;;;8.20;99.90;;;;;;4985667;28;20116;-54
2022/04/24 03:44:59;;;;;;;13.73;9.93;;;8.20;99.90;;;;;;4983702;28;20037;-55
2022/04/24 03:47:25;;;;;;;12.75;9.13;;;8.20;99.90;;;;;;4969712;28;20041;-58
2022/04/24 03:49:51;;;;;;;12.23;9.27;;;8.20;99.90;;;;;;4981663;28;20046;-57
2022/04/24 03:52:17;;;;;;;11.13;9.25;;;8.20;99.90;;;;;;4981959;28;20041;-59
2022/04/24 03:54:43;;;;;;;11.00;8.73;;;8.20;99.90;;;;;;4977259;28;20378;-58
2022/04/24 03:57:09;;;;;;;13.35;8.52;;;8.20;99.90;;;;;;4975286;28;20049;-58
2022/04/24 03:59:35;;;;;;;14.88;9.10;;;8.20;99.90;;;;;;4980976;28;20049;-57
2022/04/24 04:02:02;;;;;;;12.43;9.38;;;8.20;99.90;;;;;;4964091;28;20436;-55
2022/04/24 04:04:28;;;;;;;11.48;9.25;;;8.20;99.90;;;;;;4979571;28;20579;-56
2022/04/24 04:06:54;;;;;;;15.80;9.88;;;8.20;99.90;;;;;;4988819;28;20403;-57
2022/04/24 04:09:20;;;;;;;11.98;9.30;;;8.20;99.90;;;;;;4987266;28;20034;-55
2022/04/24 04:11:45;;;;;;;11.38;9.20;;;8.10;99.90;;;;;;4975223;28;20048;-58
2022/04/24 04:14:11;;;;;;;14.50;8.85;;;8.10;99.90;;;;;;4983160;28;20034;-57
2022/04/24 04:16:37;;;;;;;9.90;8.23;;;8.10;99.90;;;;;;4964095;28;20095;-56
2022/04/24 04:19:03;;;;;;;12.55;8.90;;;8.10;99.90;;;;;;4985843;28;20072;-56
2022/04/24 04:21:29;;;;;;;12.48;8.98;;;8.10;99.90;;;;;;4984200;28;20065;-57
2022/04/24 04:23:54;;;;;;;11.40;8.85;;;8.10;99.90;;;;;;4977874;28;20049;-57
2022/04/24 04:26:20;;;;;;;10.52;9.00;;;8.00;99.90;;;;;;4966249;28;20038;-53
2022/04/24 04:28:46;;;;;;;12.93;9.00;;;8.00;99.90;;;;;;4978464;28;20508;-56
2022/04/24 04:31:13;;;;;;;10.32;7.82;;;8.00;99.90;;;;;;4967788;28;20073;-56
2022/04/24 04:33:39;;;;;;;11.48;8.85;;;8.00;99.90;;;;;;4968362;28;20057;-58
2022/04/24 04:36:05;;;;;;;10.55;8.45;;;8.00;99.90;;;;;;4963162;28;20038;-56
2022/04/24 04:38:31;;;;;;;11.05;8.63;;;8.00;99.90;;;;;;4982843;28;20046;-54
2022/04/24 04:40:56;;;;;;;14.15;9.77;;;8.00;99.90;;;;;;4987916;28;20485;-57
2022/04/24 04:43:24;;;;;;;10.23;7.93;;;8.00;99.90;;;;;;4965499;28;20112;-57
2022/04/24 04:45:50;;;;;;;11.13;8.25;;;8.00;99.90;;;;;;4983671;28;20050;-58
2022/04/24 04:48:16;;;;;;;9.50;6.95;;;8.00;99.90;;;;;;4967008;28;20046;-58
2022/04/24 04:50:41;;;;;;;10.80;8.30;;;8.00;99.90;;;;;;4981877;28;20413;-57
2022/04/24 04:53:07;;;;;;;11.05;8.73;;;8.10;99.90;;;;;;4985399;28;20042;-58
2022/04/24 04:55:33;;;;;;;9.18;7.88;;;8.00;99.90;;;;;;4985634;28;20517;-56
2022/04/24 04:57:58;;;;;;;11.13;7.78;;;8.00;99.90;;;;;;4985234;28;20200;-58
2022/04/24 05:00:24;;;;;;;12.70;8.23;;;8.00;99.90;;;;;;4967694;28;20041;-58
2022/04/24 05:02:50;;;;;;;11.00;7.68;;;8.00;99.90;;;;;;4986135;28;20038;-58
2022/04/24 05:05:16;;;;;;;11.48;8.50;;;8.00;99.90;;;;;;4969100;28;20245;-55
2022/04/24 05:07:42;;;;;;;10.48;7.75;;;8.10;99.90;;;;;;4987001;28;20493;-55
2022/04/24 05:10:08;;;;;;;10.32;8.23;;;8.10;99.90;;;;;;4968141;28;20050;-58
2022/04/24 05:12:35;;;;;;;10.50;8.00;;;8.10;99.90;;;;;;4991201;28;20041;-54
2022/04/24 05:15:05;;;;;;;10.88;7.75;;;8.10;99.90;;;;;;4977421;28;20774;-55
2022/04/24 05:17:32;;;;;;;12.43;8.00;;;8.10;99.90;;;;;;4984482;28;20046;-59
2022/04/24 05:19:58;;;;;;;10.75;8.20;;;8.10;99.90;;;;;;4983774;28;20060;-59
2022/04/24 05:22:24;;;;;;;12.10;8.73;;;8.10;99.90;;;;;;4980153;28;20573;-54
2022/04/24 05:24:50;;;;;;;9.98;7.45;;;8.10;99.90;;;;;;4975696;28;20180;-58
2022/04/24 05:27:15;;;;;;;10.63;7.95;;;8.20;99.90;;;;;;4981609;28;20206;-58
2022/04/24 05:29:41;;;;;;;13.75;9.40;;;8.30;99.90;;;;;;4978712;28;20420;-57
2022/04/24 05:32:07;;;;;;;13.30;8.70;;;8.20;99.90;;;;;;4958242;28;20137;-56
2022/04/24 05:34:33;;;;;;;10.93;8.05;;;8.30;99.90;;;;;;4975332;28;20029;-58
2022/04/24 05:36:59;;;;;;;10.25;8.48;;;8.40;99.90;;;;;;4983756;28;20523;-57
2022/04/24 05:39:25;;;;;;;13.35;7.97;;;8.40;99.90;;;;;;4985730;28;20479;-54
2022/04/24 05:41:50;;;;;;;12.27;9.00;;;8.50;99.90;;;;;;4981822;28;20050;-59
2022/04/24 05:44:16;;;;;;;12.07;8.68;;;8.50;99.90;;;;;;4983677;28;20129;-58
2022/04/24 05:46:42;;;;;;;13.75;9.30;;;8.60;99.90;;;;;;4958799;28;20050;-58
2022/04/24 05:49:07;;;;;;;13.05;9.15;;;8.70;99.90;;;;;;4971186;28;20042;-56
2022/04/24 05:51:33;;;;;;;14.68;8.82;;;8.70;99.90;;;;;;4963147;28;20041;-56
2022/04/24 05:54:00;;;;;;;13.43;8.75;;;8.70;99.90;;;;;;4978832;28;20512;-53
2022/04/24 05:56:25;;;;;;;12.80;8.15;;;8.80;99.90;;;;;;4945338;28;20108;-60
2022/04/24 05:58:51;;;;;;;12.73;9.02;;;8.90;99.90;;;;;;4977055;28;20512;-59
2022/04/24 06:01:17;;;;;;;12.13;8.50;;;8.90;99.90;;;;;;4973227;28;20061;-58
2022/04/24 06:03:43;;;;;;;12.15;8.45;;;9.00;99.90;;;;;;4979541;28;20050;-56
2022/04/24 06:06:10;;;;;;;14.63;8.82;;;9.10;99.90;;;;;;4999251;23;20053;-61
2022/04/24 06:08:36;;;;;;;13.25;9.18;;;9.00;99.90;;;;;;5001516;28;20037;-62
2022/04/24 06:11:02;;;;;;;12.77;8.38;;;9.10;99.90;;;;;;4999564;28;20052;-62
2022/04/24 06:13:29;;;;;;;11.05;8.70;;;9.20;99.90;;;;;;4979028;28;20029;-62
2022/04/24 06:15:57;;;;;;;14.60;8.85;;;9.20;99.90;;;;;;4993655;28;20049;-63
2022/04/24 06:18:24;;;;;;;12.45;9.18;;;9.30;99.90;;;;;;4977574;28;22298;-63
2022/04/24 06:20:50;;;;;;;12.85;9.57;;;9.40;99.90;;;;;;4989303;28;20209;-62
2022/04/24 06:23:16;;;;;;;13.27;9.35;;;9.50;99.90;;;;;;4987835;28;20857;-62
2022/04/24 06:25:42;;;;;;;14.57;8.63;;;9.50;99.90;;;;;;4992515;28;20076;-61
2022/04/24 06:28:08;;;;;;;12.07;8.52;;;9.60;99.90;;;;;;4990391;28;20054;-61
2022/04/24 06:30:40;;;;;;;13.43;8.60;;;9.60;99.90;;;;;;4994723;28;20098;-61
2022/04/24 06:33:12;;;;;;;11.65;8.60;;;9.70;99.90;;;;;;4991982;28;20038;-61
2022/04/24 06:35:39;;;;;;;12.90;7.45;;;9.80;99.90;;;;;;4992997;28;20373;-62
2022/04/24 06:38:05;;;;;;;10.55;7.60;;;9.90;99.90;;;;;;4987103;28;20084;-61
2022/04/24 06:40:32;;;;;;;13.60;7.60;;;10.00;99.90;;;;;;4993049;28;20192;-61
2022/04/24 06:43:00;;;;;;;13.50;8.15;;;10.10;99.90;;;;;;4988610;28;20567;-61
2022/04/24 06:45:29;;;;;;;13.68;7.60;;;10.10;99.90;;;;;;4995520;28;20069;-62
2022/04/24 06:47:57;;;;;;;12.38;7.40;;;10.20;99.90;;;;;;4969924;28;21619;-62
2022/04/24 06:50:23;;;;;;;8.60;5.75;;;10.30;99.90;;;;;;4988855;28;20037;-61
2022/04/24 06:53:02;;;;;;;10.50;7.10;;;10.30;99.90;;;;;;4970410;28;20041;-61
2022/04/24 06:55:30;;;;;;;7.93;5.75;;;10.40;99.90;;;;;;4985049;28;20041;-62
2022/04/24 06:57:56;;;;;;;13.05;5.78;;;10.50;99.90;;;;;;4978175;28;20466;-61
2022/04/24 07:00:24;;;;;;;7.70;4.72;;;10.50;99.90;;;;;;5005921;28;20104;-61
2022/04/24 07:02:50;;;;;;;7.88;4.90;;;10.60;99.90;;;;;;5002960;28;20056;-61
2022/04/24 07:05:16;;;;;;;6.35;4.40;;;10.70;99.70;;;;;;5002977;28;21085;-60
2022/04/24 07:07:42;;;;;;;7.75;4.60;;;10.70;99.10;;;;;;5001517;28;20135;-61
2022/04/24 07:10:09;;;;;;;6.80;4.05;;;10.80;98.80;;;;;;4992185;28;20483;-61
2022/04/24 07:12:52;;;;;;;6.00;3.70;;;10.90;98.60;;;;;;5003732;28;20244;-61
2022/04/24 07:15:22;;;;;;;7.45;3.88;;;11.00;98.50;;;;;;4999787;28;20341;-61
2022/04/24 07:17:49;;;;;;;6.85;4.05;;;11.10;98.40;;;;;;5003435;28;20109;-61
2022/04/24 07:20:16;;;;;;;5.63;3.65;;;11.10;97.60;;;;;;5000678;28;20145;-60
2022/04/24 07:22:49;;;;;;;7.65;3.70;;;11.20;97.30;;;;;;5000167;28;20042;-61
2022/04/24 07:25:17;;;;;;;5.32;3.55;;;11.30;97.40;;;;;;5009231;28;20057;-62
2022/04/24 07:27:43;;;;;;;5.05;3.17;;;11.30;97.00;;;;;;4995735;28;22184;-62
2022/04/24 07:30:16;;;;;;;7.65;3.25;;;11.50;97.00;;;;;;4995095;28;20037;-59
2022/04/24 07:32:52;;;;;;;5.50;2.78;;;11.60;96.90;;;;;;4992196;28;20410;-62
2022/04/24 07:35:23;;;;;;;7.40;3.63;;;11.70;95.90;;;;;;4994680;28;20049;-62
2022/04/24 07:37:50;;;;;;;6.32;3.42;;;11.70;96.00;;;;;;4991740;28;20462;-62
2022/04/24 07:40:19;;;;;;;6.03;2.75;;;11.80;96.60;;;;;;4993870;28;20080;-61
2022/04/24 07:42:51;;;;;;;7.95;3.40;;;12.00;95.90;;;;;;4991207;28;20049;-61
2022/04/24 07:45:24;;;;;;;5.63;2.60;;;12.00;95.00;;;;;;5001269;28;20046;-63
2022/04/24 07:47:51;;;;;;;5.85;2.33;;;12.00;94.10;;;;;;4999343;28;20107;-63
2022/04/24 07:50:21;;;;;;;4.38;2.95;;;12.00;94.00;;;;;;5001852;28;21343;-63
2022/04/24 07:52:48;;;;;;;3.40;2.30;;;12.20;94.30;;;;;;5001473;28;20037;-62
2022/04/24 07:55:19;;;;;;;3.67;2.33;;;12.30;93.60;;;;;;5001547;28;20075;-63
2022/04/24 07:57:49;;;;;;;4.80;2.80;;;12.50;93.90;;;;;;5010137;28;20053;-62
2022/04/24 08:00:17;;;;;;;4.72;2.50;;;12.60;93.90;;;;;;5013427;28;20140;-61
2022/04/24 08:02:52;;;;;;;4.18;2.70;;;12.70;93.00;;;;;;5007125;28;20046;-61
2022/04/24 08:05:20;;;;;;;3.67;2.20;;;12.70;92.10;;;;;;5017885;28;20050;-62
2022/04/24 08:07:46;;;;;;;7.45;3.72;;;12.80;92.10;;;;;;5016068;28;20531;-62
2022/04/24 08:10:12;;;;;;;5.03;2.67;;;12.90;91.60;;;;;;5018778;28;20041;-62
2022/04/24 08:12:38;;;;;;;5.25;2.47;;;12.90;91.80;;;;;;5018609;28;20045;-62
2022/04/24 08:15:04;;;;;;;6.85;2.95;;;13.20;92.20;;;;;;5020068;28;20069;-62
2022/04/24 08:17:29;;;;;;;5.55;2.55;;;13.20;91.40;;;;;;5015756;28;20046;-62
2022/04/24 08:19:55;;;;;;;3.92;2.60;;;13.30;91.60;;;;;;5018645;28;20048;-62
2022/04/24 08:22:21;;;;;;;7.55;3.00;;;13.30;90.90;;;;;;5022735;28;20033;-62
2022/04/24 08:24:47;;;;;;;4.70;2.85;;;13.50;91.50;;;;;;5020679;28;20045;-62
2022/04/24 08:27:13;;;;;;;4.45;2.50;;;13.40;90.50;;;;;;5020194;28;20045;-62
2022/04/24 08:29:38;;;;;;;4.70;2.47;;;13.40;90.00;;;;;;5010526;28;20546;-62
2022/04/24 08:32:04;;;;;;;6.07;2.60;;;13.50;90.00;;;;;;5021728;28;20291;-63
2022/04/24 08:34:30;;;;;;;5.85;2.85;;;13.50;89.60;;;;;;5015612;28;20425;-63
2022/04/24 08:36:56;;;;;;;5.18;2.50;;;13.60;89.90;;;;;;5019161;28;20143;-58
2022/04/24 08:39:21;;;;;;;4.18;2.58;;;13.70;88.90;;;;;;5018607;28;20606;-62
2022/04/24 08:41:47;;;;;;;8.43;3.20;;;13.70;88.70;;;;;;5014410;28;20038;-62
2022/04/24 08:44:13;;;;;;;4.88;2.72;;;13.80;90.20;;;;;;5014596;28;20042;-61
2022/04/24 08:46:40;;;;;;;4.68;2.33;;;14.00;88.20;;;;;;5009056;28;20042;-61
2022/04/24 08:49:09;;;;;;;6.90;2.85;;;14.10;88.50;;;;;;5010636;28;20152;-61
2022/04/24 08:51:36;;;;;;;6.85;2.85;;;14.20;88.90;;;;;;5003433;28;20427;-61
2022/04/24 08:54:02;;;;;;;7.38;2.97;;;14.30;86.40;;;;;;5020701;28;20526;-60
2022/04/24 08:56:28;;;;;;;5.88;2.88;;;14.30;84.60;;;;;;5016383;28;20301;-60
2022/04/24 08:58:54;;;;;;;4.38;2.30;;;14.40;85.80;;;;;;5021249;28;20040;-62
2022/04/24 09:01:20;;;;;;;5.72;2.70;;;14.50;85.10;;;;;;5020651;28;20037;-61
2022/04/24 09:03:46;;;;;;;4.68;3.33;;;14.50;82.90;;;;;;5018227;28;20037;-60
2022/04/24 09:06:29;;;;;;;5.88;2.53;;;14.60;83.60;;;;;;5017416;28;20050;-61
2022/04/24 09:09:05;;;;;;;4.72;2.83;;;14.60;81.10;;;;;;5013156;28;20071;-62
2022/04/24 09:11:32;;;;;;;4.88;2.50;;;14.70;82.20;;;;;;5019602;28;20042;-62
2022/04/24 09:14:18;;;;;;;6.45;3.03;;;14.70;84.00;;;;;;5019299;28;20036;-61
2022/04/24 09:16:51;;;;;;;8.25;3.45;;;14.90;83.90;;;;;;5013161;28;20037;-61
2022/04/24 09:19:21;;;;;;;5.18;2.92;;;15.00;84.00;;;;;;5021119;28;20061;-61
2022/04/24 09:21:48;;;;;;;4.53;2.63;;;15.10;82.10;;;;;;5017094;28;20041;-61
2022/04/24 09:24:14;;;;;;;4.20;2.80;;;15.20;82.90;;;;;;5020680;28;20392;-62
2022/04/24 09:26:56;;;;;;;6.05;3.05;;;15.20;82.30;;;;;;5018705;28;20040;-61
2022/04/24 09:29:25;;;;;;;6.85;3.20;;;15.30;82.50;;;;;;5017335;28;20368;-61
2022/04/24 09:31:51;;;;;;;5.47;3.10;;;15.40;82.30;;;;;;5016822;28;20037;-61
2022/04/24 09:34:21;;;;;;;6.28;2.95;;;15.30;79.20;;;;;;4996442;28;20033;-61
2022/04/24 09:37:00;;;;;;;4.20;2.83;;;15.30;81.10;;;;;;5018154;28;20034;-62
2022/04/24 09:39:29;;;;;;;9.60;3.67;;;15.40;81.20;;;;;;5015781;28;20107;-61
2022/04/24 09:42:02;;;;;;;6.28;3.40;;;15.50;82.30;;;;;;5020361;28;20041;-60
2022/04/24 09:44:45;;;;;;;4.72;2.70;;;15.60;81.60;;;;;;5017265;28;20780;-59
2022/04/24 09:47:11;;;;;;;7.75;3.50;;;15.70;82.20;;;;;;5036647;28;20100;-61
2022/04/24 09:49:42;;;;;;;6.20;3.30;;;15.70;82.90;;;;;;5021923;28;20699;-61
2022/04/24 09:52:17;;;;;;;8.13;3.65;;;15.90;81.50;;;;;;5022449;28;20117;-61
2022/04/24 09:54:45;;;;;;;5.35;3.50;;;16.00;80.90;;;;;;5021102;28;20145;-58
2022/04/24 09:57:13;;;;;;;4.50;2.85;;;15.80;80.20;;;;;;5019999;28;20049;-60
2022/04/24 09:59:41;;;;;;;6.78;3.30;;;15.80;79.80;;;;;;4984647;28;20849;-61
2022/04/24 10:02:17;;;;;;;6.05;3.17;;;15.60;78.70;;;;;;5013339;28;20038;-61
2022/04/24 10:04:46;;;;;;;5.70;3.22;;;15.60;79.60;;;;;;5019447;28;20391;-60
2022/04/24 10:07:14;;;;;;;6.43;3.38;;;15.70;79.50;;;;;;5019049;28;20129;-61
2022/04/24 10:09:45;;;;;;;4.57;2.97;;;15.90;80.00;;;;;;5020319;28;20049;-60
2022/04/24 10:12:21;;;;;;;6.47;3.10;;;15.90;77.70;;;;;;5020823;28;20124;-61
2022/04/24 10:14:50;;;;;;;5.88;3.10;;;15.90;78.20;;;;;;5021394;28;20128;-60
2022/04/24 10:17:34;;;;;;;6.25;3.05;;;16.00;80.50;;;;;;5020172;28;20044;-59
2022/04/24 10:20:09;;;;;;;7.97;3.17;;;16.10;80.10;;;;;;5017858;28;20049;-61
2022/04/24 10:22:44;;;;;;;6.47;3.20;;;16.20;79.20;;;;;;5010241;28;20446;-61
2022/04/24 10:25:10;;;;;;;7.60;3.78;;;16.30;80.00;;;;;;5017333;28;20072;-61
2022/04/24 10:27:44;;;;;;;9.18;3.83;;;16.30;81.00;;;;;;5018836;28;20099;-61
2022/04/24 10:30:22;;;;;;;6.20;3.28;;;16.30;82.10;;;;;;5014735;28;20518;-61
2022/04/24 10:32:48;;;;;;;5.20;3.15;;;16.20;80.70;;;;;;5013290;28;20420;-61
2022/04/24 10:35:19;;;;;;;12.77;5.13;;;16.20;82.10;;;;;;5016212;28;20052;-61
2022/04/24 10:37:47;;;;;;;8.18;4.03;;;16.10;82.10;;;;;;5017037;28;20344;-60
2022/04/24 10:40:22;;;;;;;10.18;3.95;;;15.90;82.10;;;;;;5017120;28;20053;-60
2022/04/24 10:42:48;;;;;;;7.22;3.75;;;15.90;82.50;;;;;;5012305;28;20650;-61
2022/04/24 10:45:18;;;;;;;9.07;3.47;;;15.80;82.30;;;;;;5010969;28;20451;-61
2022/04/24 10:47:48;;;;;;;8.05;3.38;;;15.80;82.30;;;;;;4989544;28;20061;-61
2022/04/24 10:50:17;;;;;;;8.85;3.95;;;16.00;83.20;;;;;;5017692;28;20372;-61
2022/04/24 10:52:45;;;;;;;9.52;4.65;;;16.20;82.70;;;;;;5010499;28;20041;-60
2022/04/24 10:55:16;;;;;;;8.40;3.63;;;16.30;83.70;;;;;;5020103;28;20518;-60
2022/04/24 10:57:48;;;;;;;7.07;3.50;;;16.60;82.80;;;;;;5019354;28;20085;-60
2022/04/24 11:00:19;;;;;;;7.65;4.00;;;16.60;81.90;;;;;;5014880;28;20404;-61
2022/04/24 11:02:47;;;;;;;7.78;4.20;;;16.60;81.40;;;;;;5007781;28;20037;-60
2022/04/24 11:05:19;;;;;;;6.20;3.50;;;16.40;79.80;;;;;;5013861;28;20068;-60
2022/04/24 11:07:45;;;;;;;7.03;3.63;;;16.40;79.70;;;;;;5012186;28;20049;-60
2022/04/24 11:10:12;;;;;;;6.68;3.53;;;16.30;81.30;;;;;;5015017;28;20037;-62
2022/04/24 11:12:39;;;;;;;8.18;4.07;;;16.50;81.40;;;;;;5015418;28;20507;-62
2022/04/24 11:15:09;;;;;;;7.28;3.88;;;16.60;81.00;;;;;;5018208;28;20660;-62
2022/04/24 11:17:36;;;;;;;8.68;3.60;;;16.70;80.60;;;;;;5020811;28;20037;-62
2022/04/24 11:20:08;;;;;;;6.18;3.50;;;16.80;80.90;;;;;;5016309;28;20561;-60
2022/04/24 11:22:48;;;;;;;11.95;4.47;;;17.00;81.10;;;;;;5020333;28;20033;-61
2022/04/24 11:25:15;;;;;;;8.02;4.38;;;16.90;78.70;;;;;;5020311;28;20041;-61
2022/04/24 11:27:45;;;;;;;12.50;4.15;;;16.60;79.30;;;;;;5017820;28;20034;-61
2022/04/24 11:30:19;;;;;;;8.60;3.78;;;16.50;81.00;;;;;;5013618;28;20091;-61
2022/04/24 11:33:06;;;;;;;6.22;3.95;;;16.70;80.90;;;;;;5017362;28;20116;-60
2022/04/24 11:35:35;;;;;;;8.30;3.78;;;16.90;81.10;;;;;;5004521;28;20092;-60
2022/04/24 11:38:01;;;;;;;8.05;4.25;;;16.80;80.00;;;;;;5014221;28;20476;-61
2022/04/24 11:40:30;;;;;;;8.13;3.88;;;16.70;80.40;;;;;;5019501;28;20037;-59
2022/04/24 11:43:06;;;;;;;9.77;4.22;;;16.80;79.60;;;;;;5010188;28;20079;-60
2022/04/24 11:51:16;;;;;;;7.45;4.30;;;17.20;79.00;;;;;;5018676;28;20046;-60
2022/04/24 11:53:43;;;;;;;9.40;4.60;;;17.00;78.70;;;;;;5025726;28;20048;-59
2022/04/24 11:56:11;;;;;;;10.82;4.93;;;16.90;77.60;;;;;;5003591;28;20120;-61
2022/04/24 11:58:42;;;;;;;9.05;4.60;;;16.90;80.30;;;;;;5017317;28;20041;-59
2022/04/24 12:01:10;;;;;;;6.03;4.20;;;17.10;80.50;;;;;;5021528;28;20041;-59
2022/04/24 12:03:37;;;;;;;9.95;5.20;;;17.10;79.60;;;;;;5001823;28;20044;-61
2022/04/24 12:06:11;;;;;;;10.27;4.53;;;17.10;78.90;;;;;;5020147;28;20175;-62
2022/04/24 12:08:46;;;;;;;8.98;4.22;;;16.80;79.00;;;;;;5025826;28;20127;-61
2022/04/24 12:11:29;;;;;;;9.00;4.45;;;17.00;80.20;;;;;;5014813;28;20041;-63
2022/04/24 12:14:08;;;;;;;10.15;5.38;;;17.00;77.30;;;;;;5021363;28;20038;-60
2022/04/24 12:16:38;;;;;;;10.85;4.32;;;16.70;77.20;;;;;;5028328;28;20410;-59
2022/04/24 12:19:05;;;;;;;8.15;4.75;;;16.70;79.70;;;;;;5025307;28;20443;-59
2022/04/24 12:21:32;;;;;;;9.32;4.50;;;16.90;78.80;;;;;;5021620;28;20064;-60
2022/04/24 12:23:59;;;;;;;9.18;4.85;;;17.00;77.20;;;;;;5023244;28;20100;-61
2022/04/24 12:26:25;;;;;;;12.13;4.75;;;16.80;76.90;;;;;;5002592;28;20053;-60
2022/04/24 12:28:51;;;;;;;9.00;4.68;;;16.70;78.70;;;;;;5021150;28;20061;-62
2022/04/24 12:31:26;;;;;;;8.55;4.38;;;16.90;80.10;;;;;;4998125;28;20054;-62
2022/04/24 12:33:57;;;;;;;6.57;4.68;;;16.90;77.40;;;;;;5018351;28;20025;-63
2022/04/24 12:36:23;;;;;;;11.57;5.18;;;17.00;76.50;;;;;;4996530;28;20270;-63
2022/04/24 12:39:08;;;;;;;7.05;4.38;;;16.70;76.80;;;;;;5017234;28;20152;-63
2022/04/24 12:41:37;;;;;;;8.93;4.10;;;16.70;78.60;;;;;;5017133;28;20045;-63
2022/04/24 12:44:07;;;;;;;10.93;4.80;;;16.80;77.10;;;;;;5021808;28;20079;-61
2022/04/24 12:46:35;;;;;;;7.43;4.88;;;16.80;76.30;;;;;;4999406;28;20081;-61
2022/04/24 12:49:03;;;;;;;10.35;5.22;;;16.70;77.30;;;;;;5018700;28;20492;-62
2022/04/24 12:51:29;;;;;;;11.45;5.20;;;16.80;76.80;;;;;;5004517;28;20060;-62
2022/04/24 12:53:57;;;;;;;14.57;5.03;;;16.80;77.40;;;;;;5021565;28;20059;-62